createdAt,value
2022-07-28T00:00:09.159Z,1.30
2022-07-28T00:02:39.564Z,1.10
2022-07-28T00:05:10.515Z,1.17
2022-07-28T00:07:40.415Z,1.30
2022-07-28T00:10:11.528Z,1.30
2022-07-28T00:12:43.828Z,0.93
2022-07-28T00:15:14.504Z,1.10
2022-07-28T00:17:44.228Z,1.20
2022-07-28T00:20:14.648Z,1.10
2022-07-28T00:22:45.137Z,1.10
2022-07-28T00:25:15.574Z,1.10
2022-07-28T00:27:48.497Z,1.00
2022-07-28T00:30:18.243Z,0.90
2022-07-28T00:32:48.294Z,1.10
2022-07-28T00:35:30.159Z,1.30
2022-07-28T00:38:01.073Z,1.35
2022-07-28T00:40:43.384Z,1.17
2022-07-28T00:43:15.749Z,1.25
2022-07-28T00:45:45.720Z,1.27
2022-07-28T00:48:15.433Z,1.40
2022-07-28T00:50:47.532Z,1.10
2022-07-28T00:53:17.566Z,1.20
2022-07-28T00:56:03.465Z,1.17
2022-07-28T00:58:40.204Z,1.35
2022-07-28T01:01:11.709Z,1.20
2022-07-28T01:03:44.465Z,1.23
2022-07-28T01:06:22.543Z,1.20
2022-07-28T01:09:01.833Z,1.50
2022-07-28T01:11:42.902Z,1.48
2022-07-28T01:14:22.237Z,1.13
2022-07-28T01:16:59.539Z,1.05
2022-07-28T01:19:42.581Z,1.00
2022-07-28T01:22:15.753Z,1.33
2022-07-28T01:24:59.214Z,1.08
2022-07-28T01:27:48.586Z,1.45
2022-07-28T01:30:32.278Z,1.38
2022-07-28T01:33:05.474Z,1.73
2022-07-28T01:35:40.684Z,1.42
2022-07-28T01:38:12.706Z,1.30
2022-07-28T01:40:45.858Z,1.60
2022-07-28T01:43:24.432Z,1.50
2022-07-28T01:45:58.649Z,1.55
2022-07-28T01:48:30.987Z,1.27
2022-07-28T01:51:01.350Z,1.42
2022-07-28T01:53:37.713Z,1.58
2022-07-28T01:56:10.593Z,1.40
2022-07-28T01:58:41.965Z,1.40
2022-07-28T02:01:17.564Z,1.40
2022-07-28T02:03:48.597Z,1.33
2022-07-28T02:06:21.032Z,1.73
2022-07-28T02:08:53.722Z,1.55
2022-07-28T02:11:36.434Z,1.55
2022-07-28T02:14:07.260Z,1.60
2022-07-28T02:16:41.859Z,1.60
2022-07-28T02:19:12.812Z,1.80
2022-07-28T02:21:47.726Z,1.70
2022-07-28T02:24:21.501Z,1.35
2022-07-28T02:26:56.410Z,1.55
2022-07-28T02:29:49.696Z,1.80
2022-07-28T02:32:27.066Z,1.80
2022-07-28T02:35:01.371Z,1.90
2022-07-28T02:37:37.635Z,1.98
2022-07-28T02:40:12.100Z,1.52
2022-07-28T02:42:43.958Z,1.80
2022-07-28T02:45:16.373Z,1.70
2022-07-28T02:47:54.541Z,1.70
2022-07-28T02:50:27.491Z,1.95
2022-07-28T02:53:00.898Z,1.70
2022-07-28T02:55:46.802Z,1.50
2022-07-28T02:58:18.588Z,1.60
2022-07-28T03:00:48.773Z,1.92
2022-07-28T03:03:22.349Z,1.80
2022-07-28T03:05:52.803Z,2.15
2022-07-28T03:08:22.583Z,1.70
2022-07-28T03:10:52.328Z,2.30
2022-07-28T03:13:22.045Z,1.80
2022-07-28T03:15:51.747Z,2.13
2022-07-28T03:18:27.453Z,2.38
2022-07-28T03:20:57.341Z,2.00
2022-07-28T03:23:31.533Z,1.90
2022-07-28T03:26:08.364Z,2.00
2022-07-28T03:28:39.434Z,1.52
2022-07-28T03:31:12.431Z,2.10
2022-07-28T03:33:45.122Z,1.83
2022-07-28T03:36:18.496Z,2.20
2022-07-28T03:38:54.539Z,1.95
2022-07-28T03:41:25.930Z,2.20
2022-07-28T03:43:57.152Z,2.20
2022-07-28T03:46:28.064Z,2.15
2022-07-28T03:49:00.529Z,2.00
2022-07-28T03:51:30.362Z,2.40
2022-07-28T03:54:00.090Z,2.28
2022-07-28T03:56:29.821Z,2.20
2022-07-28T03:58:59.549Z,1.95
2022-07-28T04:01:29.576Z,2.00
2022-07-28T04:04:01.941Z,2.10
2022-07-28T04:06:31.704Z,2.22
2022-07-28T04:09:01.441Z,2.33
2022-07-28T04:11:31.232Z,2.00
2022-07-28T04:14:01.024Z,2.85
2022-07-28T04:16:30.845Z,2.10
2022-07-28T04:19:03.799Z,2.30
2022-07-28T04:21:33.531Z,1.95
2022-07-28T04:24:03.239Z,2.67
2022-07-28T04:26:32.952Z,2.28
2022-07-28T04:29:03.276Z,2.40
2022-07-28T04:31:33.302Z,2.67
2022-07-28T04:34:05.643Z,2.10
2022-07-28T04:36:41.871Z,2.70
2022-07-28T04:39:11.777Z,2.35
2022-07-28T04:41:41.957Z,2.63
2022-07-28T04:44:13.758Z,3.00
2022-07-28T04:46:44.679Z,2.60
2022-07-28T04:49:17.230Z,2.42
2022-07-28T04:51:50.662Z,2.30
2022-07-28T04:54:26.081Z,2.17
2022-07-28T04:56:56.373Z,2.50
2022-07-28T04:59:27.009Z,2.50
2022-07-28T05:01:58.524Z,2.47
2022-07-28T05:04:31.140Z,2.53
2022-07-28T05:07:00.934Z,2.58
2022-07-28T05:09:37.755Z,2.50
2022-07-28T05:12:07.933Z,2.78
2022-07-28T05:14:37.745Z,2.70
2022-07-28T05:17:07.495Z,2.70
2022-07-28T05:19:42.115Z,2.50
2022-07-28T05:22:11.876Z,2.40
2022-07-28T05:24:41.592Z,2.20
2022-07-28T05:27:12.272Z,2.10
2022-07-28T05:29:46.988Z,2.00
2022-07-28T05:32:18.232Z,2.40
2022-07-28T05:34:50.771Z,2.08
2022-07-28T05:37:20.566Z,2.20
2022-07-28T05:39:50.268Z,1.80
2022-07-28T05:42:20.010Z,1.52
2022-07-28T05:44:49.742Z,1.90
2022-07-28T05:47:19.431Z,1.80
2022-07-28T05:49:51.744Z,1.85
2022-07-28T05:52:21.687Z,1.98
2022-07-28T05:54:51.418Z,1.73
2022-07-28T05:57:21.137Z,1.83
2022-07-28T05:59:50.857Z,1.58
2022-07-28T06:02:20.885Z,1.90
2022-07-28T06:04:53.498Z,1.90
2022-07-28T06:07:23.241Z,1.67
2022-07-28T06:10:13.627Z,2.10
2022-07-28T06:12:44.182Z,1.90
2022-07-28T06:15:16.214Z,2.10
2022-07-28T06:17:46.009Z,2.38
2022-07-28T06:20:18.329Z,2.10
2022-07-28T06:22:50.170Z,1.85
2022-07-28T06:25:22.094Z,1.90
2022-07-28T06:27:55.166Z,1.90
2022-07-28T06:30:26.429Z,1.70
2022-07-28T06:32:56.393Z,1.80
2022-07-28T06:35:28.898Z,1.60
2022-07-28T06:37:58.689Z,1.63
2022-07-28T06:40:28.478Z,1.85
2022-07-28T06:42:58.272Z,1.80
2022-07-28T06:45:28.060Z,1.90
2022-07-28T06:47:57.798Z,1.83
2022-07-28T06:50:30.150Z,2.08
2022-07-28T06:53:00.559Z,1.80
2022-07-28T06:55:35.378Z,1.90
2022-07-28T06:58:05.930Z,1.75
2022-07-28T07:00:36.206Z,2.08
2022-07-28T07:03:09.639Z,1.63
2022-07-28T07:05:42.237Z,1.90
2022-07-28T07:08:11.975Z,1.75
2022-07-28T07:10:41.737Z,1.60
2022-07-28T07:13:11.500Z,2.70
2022-07-28T07:15:43.620Z,1.80
2022-07-28T07:18:13.354Z,1.85
2022-07-28T07:20:45.671Z,2.40
2022-07-28T07:23:15.450Z,1.70
2022-07-28T07:25:45.288Z,1.55
2022-07-28T07:28:15.362Z,1.20
2022-07-28T07:30:45.160Z,1.00
2022-07-28T07:33:14.950Z,1.10
2022-07-28T07:35:47.593Z,1.00
2022-07-28T07:38:17.310Z,0.90
2022-07-28T07:40:47.313Z,0.70
2022-07-28T07:43:17.033Z,0.88
2022-07-28T07:45:47.382Z,0.90
2022-07-28T07:48:17.121Z,0.95
2022-07-28T07:50:53.825Z,0.70
2022-07-28T07:53:24.406Z,0.68
2022-07-28T07:55:54.174Z,0.60
2022-07-28T07:58:24.064Z,0.70
2022-07-28T08:00:54.127Z,0.77
2022-07-28T08:03:24.076Z,0.60
2022-07-28T08:05:59.065Z,0.88
2022-07-28T08:08:29.968Z,0.90
2022-07-28T08:10:59.999Z,0.50
2022-07-28T08:13:33.785Z,0.77
2022-07-28T08:16:04.099Z,0.65
2022-07-28T08:18:33.837Z,0.90
2022-07-28T08:21:06.389Z,0.90
2022-07-28T08:23:36.120Z,0.82
2022-07-28T08:26:06.185Z,0.77
2022-07-28T08:28:35.865Z,0.82
2022-07-28T08:31:05.644Z,1.17
2022-07-28T08:33:35.370Z,1.02
2022-07-28T08:36:26.294Z,0.82
2022-07-28T08:38:56.016Z,0.88
2022-07-28T08:41:33.699Z,0.95
2022-07-28T08:44:05.756Z,0.60
2022-07-28T08:46:38.838Z,1.27
2022-07-28T08:49:11.207Z,1.02
2022-07-28T08:51:50.334Z,0.70
2022-07-28T08:54:24.347Z,0.93
2022-07-28T08:56:54.553Z,0.90
2022-07-28T08:59:24.783Z,0.82
2022-07-28T09:01:57.822Z,0.80
2022-07-28T09:04:29.254Z,0.77
2022-07-28T09:07:01.784Z,0.80
2022-07-28T09:09:32.051Z,1.02
2022-07-28T09:12:01.947Z,0.88
2022-07-28T09:14:31.711Z,0.82
2022-07-28T09:17:02.727Z,0.63
2022-07-28T09:19:35.860Z,0.80
2022-07-28T09:22:09.561Z,0.77
2022-07-28T09:24:41.235Z,0.52
2022-07-28T09:27:13.419Z,0.65
2022-07-28T09:29:45.034Z,0.73
2022-07-28T09:32:16.153Z,0.90
2022-07-28T09:34:48.494Z,0.75
2022-07-28T09:37:27.676Z,0.73
2022-07-28T09:39:59.466Z,0.60
2022-07-28T09:42:47.287Z,0.90
2022-07-28T09:45:25.092Z,0.80
2022-07-28T09:48:12.134Z,0.70
2022-07-28T09:50:43.088Z,0.60
2022-07-28T09:53:28.471Z,0.75
2022-07-28T09:56:00.967Z,0.73
2022-07-28T09:58:32.420Z,0.75
2022-07-28T10:01:07.367Z,0.60
2022-07-28T10:03:38.491Z,0.63
2022-07-28T10:06:11.700Z,0.90
2022-07-28T10:08:49.069Z,0.80
2022-07-28T10:11:21.805Z,0.80
2022-07-28T10:14:05.520Z,0.70
2022-07-28T10:16:36.947Z,0.68
2022-07-28T10:19:08.700Z,0.70
2022-07-28T10:21:44.261Z,0.63
2022-07-28T10:24:23.461Z,0.65
2022-07-28T10:26:55.320Z,0.60
2022-07-28T10:29:25.483Z,0.60
2022-07-28T10:31:57.214Z,0.57
2022-07-28T10:34:32.050Z,0.60
2022-07-28T10:37:05.187Z,0.60
2022-07-28T10:39:43.878Z,0.82
2022-07-28T10:42:14.932Z,0.77
2022-07-28T10:44:45.812Z,0.60
2022-07-28T10:47:18.461Z,0.63
2022-07-28T10:49:50.588Z,0.60
2022-07-28T10:55:21.864Z,0.57
2022-07-28T10:58:11.443Z,0.60
2022-07-28T11:01:04.720Z,0.60
2022-07-28T11:03:40.972Z,0.52
2022-07-28T11:06:30.596Z,0.63
2022-07-28T11:09:02.953Z,0.57
2022-07-28T11:11:52.711Z,0.50
2022-07-28T11:14:37.134Z,0.60
2022-07-28T11:17:23.931Z,0.77
2022-07-28T11:20:24.665Z,0.60
2022-07-28T11:22:49.376Z,0.60
2022-07-28T11:25:22.550Z,0.80
2022-07-28T11:28:08.412Z,0.68
2022-07-28T11:30:55.040Z,0.80
2022-07-28T11:33:25.369Z,0.70
2022-07-28T11:36:00.372Z,0.60
2022-07-28T11:38:31.978Z,0.60
2022-07-28T11:41:01.678Z,0.63
2022-07-28T11:43:40.205Z,0.80
2022-07-28T11:46:37.581Z,0.60
2022-07-28T11:49:22.557Z,0.65
2022-07-28T11:52:11.106Z,0.82
2022-07-28T11:54:41.919Z,0.63
2022-07-28T11:57:13.768Z,0.60
2022-07-28T11:59:59.908Z,0.70
2022-07-28T12:02:32.376Z,0.85
2022-07-28T12:05:14.570Z,0.60
2022-07-28T12:07:47.677Z,0.60
2022-07-28T12:10:54.477Z,0.70
2022-07-28T12:13:30.269Z,0.70
2022-07-28T12:16:02.677Z,0.65
2022-07-28T12:18:32.513Z,0.60
2022-07-28T12:21:05.353Z,0.70
2022-07-28T12:23:45.929Z,0.90
2022-07-28T12:26:40.915Z,0.60
2022-07-28T12:29:14.173Z,0.70
2022-07-28T12:31:59.380Z,0.65
2022-07-28T12:34:30.076Z,0.77
2022-07-28T12:37:02.521Z,0.75
2022-07-28T12:39:34.553Z,0.60
2022-07-28T12:42:06.200Z,0.80
2022-07-28T12:44:37.568Z,0.75
2022-07-28T12:47:12.432Z,0.70
2022-07-28T12:49:43.714Z,0.70
2022-07-28T12:52:22.189Z,0.60
2022-07-28T12:54:55.816Z,0.70
2022-07-28T12:57:51.679Z,0.70
2022-07-28T13:00:24.713Z,0.60
2022-07-28T13:03:00.621Z,0.70
2022-07-28T13:05:56.225Z,0.70
2022-07-28T13:08:29.454Z,0.73
2022-07-28T13:10:59.502Z,0.70
2022-07-28T13:13:30.541Z,0.70
2022-07-28T13:16:17.525Z,0.63
2022-07-28T13:18:51.991Z,0.80
2022-07-28T13:21:58.496Z,0.60
2022-07-28T13:24:32.558Z,0.52
2022-07-28T13:27:04.749Z,0.52
2022-07-28T13:29:37.002Z,0.75
2022-07-28T13:32:06.942Z,0.60
2022-07-28T13:34:39.347Z,0.80
2022-07-28T13:37:09.062Z,0.80
2022-07-28T13:39:38.789Z,0.80
2022-07-28T13:42:10.397Z,0.60
2022-07-28T13:44:41.084Z,1.02
2022-07-28T13:47:11.042Z,0.60
2022-07-28T13:49:49.190Z,0.60
2022-07-28T13:52:32.969Z,0.90
2022-07-28T13:55:06.333Z,0.73
2022-07-28T13:57:36.909Z,0.70
2022-07-28T14:00:09.449Z,1.02
2022-07-28T14:02:44.018Z,0.80
2022-07-28T14:05:16.738Z,0.70
2022-07-28T14:07:48.590Z,0.65
2022-07-28T14:10:19.238Z,0.85
2022-07-28T14:12:49.008Z,0.65
2022-07-28T14:15:18.735Z,0.95
2022-07-28T14:17:48.515Z,0.82
2022-07-28T14:20:20.875Z,0.70
2022-07-28T14:22:50.623Z,1.05
2022-07-28T14:25:21.737Z,0.68
2022-07-28T14:27:52.846Z,0.70
2022-07-28T14:30:23.516Z,0.80
2022-07-28T14:32:53.235Z,0.70
2022-07-28T14:35:26.600Z,0.80
2022-07-28T14:40:46.031Z,0.60
2022-07-28T14:43:15.815Z,0.80
2022-07-28T14:46:00.472Z,0.90
2022-07-28T14:48:35.593Z,0.70
2022-07-28T14:51:07.952Z,0.70
2022-07-28T14:53:43.207Z,0.65
2022-07-28T14:56:18.172Z,0.85
2022-07-28T14:58:47.892Z,0.88
2022-07-28T15:01:18.187Z,0.70
2022-07-28T15:03:48.000Z,0.73
2022-07-28T15:06:20.326Z,0.70
2022-07-28T15:08:50.036Z,0.60
2022-07-28T15:11:19.788Z,0.80
2022-07-28T15:13:49.529Z,0.65
2022-07-28T15:16:19.319Z,0.75
2022-07-28T15:18:49.125Z,0.68
2022-07-28T15:21:21.823Z,0.85
2022-07-28T15:23:51.535Z,0.60
2022-07-28T15:26:21.313Z,0.70
2022-07-28T15:28:51.149Z,0.70
2022-07-28T15:31:20.975Z,0.80
2022-07-28T15:33:57.652Z,0.80
2022-07-28T15:36:30.544Z,0.82
2022-07-28T15:39:00.344Z,0.73
2022-07-28T15:41:30.176Z,0.60
2022-07-28T15:43:59.940Z,0.80
2022-07-28T15:46:29.842Z,0.80
2022-07-28T15:49:00.541Z,0.60
2022-07-28T15:51:33.037Z,0.77
2022-07-28T15:54:03.625Z,0.70
2022-07-28T15:56:34.671Z,0.80
2022-07-28T15:59:07.353Z,0.80
2022-07-28T16:01:43.269Z,0.90
2022-07-28T16:04:15.330Z,0.70
2022-07-28T16:07:00.261Z,0.90
2022-07-28T16:09:46.087Z,0.70
2022-07-28T16:12:16.964Z,0.70
2022-07-28T16:14:46.718Z,0.73
2022-07-28T16:17:16.598Z,0.80
2022-07-28T16:19:49.592Z,0.68
2022-07-28T16:22:23.500Z,0.90
2022-07-28T16:24:53.528Z,0.90
2022-07-28T16:27:23.280Z,0.93
2022-07-28T16:29:52.988Z,0.65
2022-07-28T16:32:22.859Z,0.70
2022-07-28T16:34:53.956Z,0.88
2022-07-28T16:37:27.008Z,0.90
2022-07-28T16:39:57.593Z,0.80
2022-07-28T16:42:27.347Z,0.70
2022-07-28T16:44:57.335Z,0.80
2022-07-28T16:47:27.093Z,0.60
2022-07-28T16:49:56.813Z,0.70
2022-07-28T16:52:29.874Z,0.80
2022-07-28T16:54:59.579Z,0.75
2022-07-28T16:57:29.310Z,0.80
2022-07-28T16:59:59.031Z,0.98
2022-07-28T17:02:28.777Z,1.05
2022-07-28T17:04:58.622Z,0.70
2022-07-28T17:07:31.053Z,0.73
2022-07-28T17:10:00.778Z,0.90
2022-07-28T17:12:30.496Z,0.93
2022-07-28T17:15:00.302Z,0.80
2022-07-28T17:17:30.264Z,0.60
2022-07-28T17:20:00.508Z,1.20
2022-07-28T17:22:33.393Z,0.70
2022-07-28T17:25:06.858Z,0.93
2022-07-28T17:27:47.701Z,0.88
2022-07-28T17:30:18.375Z,0.90
2022-07-28T17:32:48.098Z,1.33
2022-07-28T17:35:34.416Z,0.70
2022-07-28T17:38:09.964Z,1.00
2022-07-28T17:40:42.781Z,0.80
2022-07-28T17:43:15.299Z,0.75
2022-07-28T17:45:45.031Z,0.80
2022-07-28T17:48:14.840Z,0.80
2022-07-28T17:50:44.994Z,0.70
2022-07-28T17:53:19.791Z,0.70
2022-07-28T17:56:00.584Z,0.75
2022-07-28T17:58:32.642Z,0.85
2022-07-28T18:01:11.986Z,0.95
2022-07-28T18:03:57.872Z,0.90
2022-07-28T18:06:30.702Z,0.93
2022-07-28T18:09:05.271Z,0.90
2022-07-28T18:11:58.451Z,1.20
2022-07-28T18:14:27.696Z,1.00
2022-07-28T18:16:57.752Z,0.95
2022-07-28T18:19:27.810Z,1.00
2022-07-28T18:21:59.044Z,0.80
2022-07-28T18:24:32.074Z,0.70
2022-07-28T18:27:02.048Z,1.02
2022-07-28T18:29:38.488Z,0.75
2022-07-28T18:32:10.457Z,1.23
2022-07-28T18:34:41.368Z,0.90
2022-07-28T18:37:11.125Z,1.00
2022-07-28T18:39:43.507Z,0.70
2022-07-28T18:42:13.437Z,0.80
2022-07-28T18:44:43.149Z,0.80
2022-07-28T18:47:13.603Z,0.90
2022-07-28T18:49:43.473Z,0.75
2022-07-28T18:52:13.225Z,1.02
2022-07-28T18:54:45.585Z,0.88
2022-07-28T18:57:15.304Z,0.88
2022-07-28T18:59:50.200Z,1.00
2022-07-28T19:02:22.096Z,0.90
2022-07-28T19:04:56.098Z,1.05
2022-07-28T19:07:25.779Z,1.05
2022-07-28T19:09:58.901Z,1.05
2022-07-28T19:12:31.234Z,0.98
2022-07-28T19:15:01.463Z,1.10
2022-07-28T19:17:31.224Z,0.98
2022-07-28T19:20:01.333Z,1.23
2022-07-28T19:22:31.073Z,1.15
2022-07-28T19:25:03.564Z,1.02
2022-07-28T19:27:34.433Z,1.00
2022-07-28T19:30:04.148Z,1.00
2022-07-28T19:32:33.949Z,0.98
2022-07-28T19:35:04.005Z,1.10
2022-07-28T19:37:37.094Z,1.10
2022-07-28T19:40:11.282Z,1.02
2022-07-28T19:42:41.038Z,1.00
2022-07-28T19:45:12.087Z,1.05
2022-07-28T19:47:42.353Z,1.10
2022-07-28T19:50:12.556Z,1.20
2022-07-28T19:52:42.898Z,1.02
2022-07-28T19:55:17.709Z,1.20
2022-07-28T19:57:48.143Z,0.82
2022-07-28T20:00:19.270Z,1.02
2022-07-28T20:02:49.074Z,1.25
2022-07-28T20:05:19.193Z,1.20
2022-07-28T20:07:48.929Z,0.98
2022-07-28T20:10:22.191Z,0.90
2022-07-28T20:12:52.035Z,1.00
2022-07-28T20:15:22.220Z,1.08
2022-07-28T20:17:51.963Z,0.90
2022-07-28T20:20:22.033Z,0.95
2022-07-28T20:22:51.971Z,1.00
2022-07-28T20:25:24.319Z,1.00
2022-07-28T20:27:54.745Z,1.00
2022-07-28T20:30:24.537Z,1.10
2022-07-28T20:32:54.300Z,1.00
2022-07-28T20:35:24.045Z,1.17
2022-07-28T20:37:53.954Z,1.10
2022-07-28T20:40:26.608Z,1.02
2022-07-28T20:42:56.831Z,1.30
2022-07-28T20:45:26.857Z,1.23
2022-07-28T20:47:56.577Z,1.00
2022-07-28T20:50:26.365Z,0.95
2022-07-28T20:52:56.126Z,0.77
2022-07-28T20:55:28.676Z,1.05
2022-07-28T20:57:58.711Z,0.95
2022-07-28T21:00:30.124Z,1.13
2022-07-28T21:03:01.556Z,0.98
2022-07-28T21:05:35.778Z,1.10
2022-07-28T21:08:09.489Z,1.30
2022-07-28T21:10:48.897Z,1.15
2022-07-28T21:13:18.619Z,0.95
2022-07-28T21:15:48.351Z,1.10
2022-07-28T21:18:18.377Z,1.08
2022-07-28T21:20:48.108Z,1.33
2022-07-28T21:23:18.971Z,1.30
2022-07-28T21:25:51.539Z,1.30
2022-07-28T21:28:33.678Z,1.10
2022-07-28T21:31:03.391Z,1.10
2022-07-28T21:33:33.216Z,1.20
2022-07-28T21:36:03.394Z,1.23
2022-07-28T21:38:33.207Z,1.08
2022-07-28T21:41:05.554Z,1.00
2022-07-28T21:43:35.306Z,0.90
2022-07-28T21:46:05.569Z,1.00
2022-07-28T21:48:35.489Z,1.00
2022-07-28T21:51:05.253Z,1.00
2022-07-28T21:53:49.119Z,1.00
2022-07-28T21:56:22.481Z,1.13
2022-07-28T21:58:52.462Z,0.98
2022-07-28T22:01:22.654Z,1.00
2022-07-28T22:03:52.864Z,1.02
2022-07-28T22:06:22.861Z,0.88
2022-07-28T22:08:54.111Z,1.35
2022-07-28T22:11:26.693Z,0.90
2022-07-28T22:13:56.349Z,0.98
2022-07-28T22:16:26.029Z,1.00
2022-07-28T22:18:55.721Z,1.08
2022-07-28T22:21:25.394Z,1.00
2022-07-28T22:23:55.034Z,1.02
2022-07-28T22:26:27.268Z,1.00
2022-07-28T22:28:56.915Z,1.13
2022-07-28T22:31:26.615Z,1.20
2022-07-28T22:33:56.287Z,0.95
2022-07-28T22:36:25.972Z,1.20
2022-07-28T22:38:55.786Z,1.15
2022-07-28T22:41:28.050Z,1.00
2022-07-28T22:43:58.694Z,1.10
2022-07-28T22:46:28.505Z,1.25
2022-07-28T22:48:58.344Z,1.33
2022-07-28T22:51:28.138Z,1.20
2022-07-28T22:53:59.078Z,1.40
2022-07-28T22:56:43.417Z,1.30
2022-07-28T22:59:14.438Z,1.27
2022-07-28T23:01:47.515Z,1.23
2022-07-28T23:04:17.756Z,1.30
2022-07-28T23:06:48.280Z,1.30
2022-07-28T23:09:18.098Z,1.00
2022-07-28T23:11:55.570Z,1.15
2022-07-28T23:14:25.741Z,1.27
2022-07-28T23:16:55.543Z,1.30
2022-07-28T23:19:25.408Z,1.23
2022-07-28T23:21:55.284Z,1.52
2022-07-28T23:24:25.191Z,1.33
2022-07-28T23:26:57.553Z,1.30
2022-07-28T23:29:27.312Z,1.10
2022-07-28T23:31:57.124Z,1.45
2022-07-28T23:34:26.944Z,1.20
2022-07-28T23:36:56.701Z,1.13
2022-07-28T23:39:26.486Z,1.20
2022-07-28T23:41:58.886Z,1.10
2022-07-28T23:44:28.659Z,1.33
2022-07-28T23:46:58.458Z,1.20
2022-07-28T23:49:28.484Z,1.30
2022-07-28T23:51:58.278Z,1.15
2022-07-28T23:54:27.999Z,1.50
2022-07-28T23:57:00.328Z,1.10
2022-07-28T23:59:30.096Z,1.15
